createdAt,value
2023-02-25T00:02:10.435Z,3.61
2023-02-25T00:07:11.637Z,3.60
2023-02-25T00:12:12.900Z,3.59
2023-02-25T00:17:14.123Z,3.60
2023-02-25T00:22:15.285Z,3.59
2023-02-25T00:27:16.472Z,3.60
2023-02-25T00:32:17.900Z,3.55
2023-02-25T00:37:19.236Z,3.51
2023-02-25T00:42:20.575Z,3.50
2023-02-25T00:47:21.777Z,3.46
2023-02-25T00:52:23.042Z,3.46
2023-02-25T00:57:24.253Z,3.48
2023-02-25T01:02:25.506Z,3.45
2023-02-25T01:07:26.692Z,3.40
2023-02-25T01:12:27.815Z,3.38
2023-02-25T01:17:28.992Z,3.39
2023-02-25T01:22:30.133Z,3.39
2023-02-25T01:27:31.315Z,3.39
2023-02-25T01:32:32.919Z,3.39
2023-02-25T01:37:34.227Z,3.39
2023-02-25T01:42:35.402Z,3.38
2023-02-25T01:47:36.591Z,3.36
2023-02-25T01:52:37.819Z,3.35
2023-02-25T01:57:38.995Z,3.34
2023-02-25T02:02:40.377Z,3.33
2023-02-25T02:07:41.639Z,3.33
2023-02-25T02:12:43.082Z,3.33
2023-02-25T02:17:44.269Z,3.33
2023-02-25T02:22:45.481Z,3.32
2023-02-25T02:27:46.698Z,3.28
2023-02-25T02:32:47.990Z,3.24
2023-02-25T02:37:49.216Z,3.25
2023-02-25T02:42:50.589Z,3.26
2023-02-25T02:47:51.797Z,3.30
2023-02-25T02:52:53.300Z,3.27
2023-02-25T02:57:54.462Z,3.26
2023-02-25T03:02:55.615Z,3.25
2023-02-25T03:07:56.815Z,3.23
2023-02-25T03:12:58.034Z,3.22
2023-02-25T03:17:59.235Z,3.24
2023-02-25T03:23:00.456Z,3.24
2023-02-25T03:28:01.656Z,3.21
2023-02-25T03:33:02.848Z,3.20
2023-02-25T03:38:03.999Z,3.23
2023-02-25T03:43:08.380Z,3.22
2023-02-25T03:48:09.731Z,3.20
2023-02-25T03:53:10.980Z,3.17
2023-02-25T03:58:12.366Z,3.14
2023-02-25T04:03:13.565Z,3.15
2023-02-25T04:08:18.069Z,3.15
2023-02-25T04:13:20.827Z,3.12
2023-02-25T04:18:26.485Z,3.12
2023-02-25T04:23:27.685Z,3.14
2023-02-25T04:28:28.932Z,3.18
2023-02-25T04:33:30.072Z,3.17
2023-02-25T04:38:31.230Z,3.19
2023-02-25T04:43:32.481Z,3.17
2023-02-25T04:48:33.665Z,3.19
2023-02-25T04:53:34.793Z,3.18
2023-02-25T04:58:35.980Z,3.19
2023-02-25T05:03:37.110Z,3.19
2023-02-25T05:08:38.341Z,3.16
2023-02-25T05:13:39.505Z,3.18
2023-02-25T05:18:40.689Z,3.21
2023-02-25T05:23:41.937Z,3.19
2023-02-25T05:28:45.886Z,3.21
2023-02-25T05:33:47.031Z,3.22
2023-02-25T05:38:48.188Z,3.21
2023-02-25T05:43:49.378Z,3.18
2023-02-25T05:48:50.557Z,3.15
2023-02-25T05:53:51.735Z,3.17
2023-02-25T05:58:52.990Z,3.12
2023-02-25T06:03:58.270Z,3.15
2023-02-25T06:08:59.491Z,3.16
2023-02-25T06:14:00.748Z,3.18
2023-02-25T06:19:02.186Z,3.15
2023-02-25T06:24:05.558Z,3.18
2023-02-25T06:29:06.872Z,3.16
2023-02-25T06:34:08.053Z,3.18
2023-02-25T06:39:09.679Z,3.20
2023-02-25T06:44:10.841Z,3.18
2023-02-25T06:49:12.430Z,3.19
2023-02-25T06:54:13.578Z,3.17
2023-02-25T06:59:14.788Z,3.19
2023-02-25T07:04:16.021Z,3.24
2023-02-25T07:09:17.298Z,3.28
2023-02-25T07:14:18.470Z,3.30
2023-02-25T07:19:19.673Z,3.37
2023-02-25T07:24:20.893Z,3.38
2023-02-25T07:29:22.051Z,3.41
2023-02-25T07:34:23.257Z,3.47
2023-02-25T07:39:24.441Z,3.49
2023-02-25T07:44:25.690Z,3.51
2023-02-25T07:49:26.837Z,3.57
2023-02-25T07:54:28.253Z,3.60
2023-02-25T07:59:29.556Z,3.72
2023-02-25T08:04:30.847Z,3.75
2023-02-25T08:09:32.055Z,3.82
2023-02-25T08:14:33.257Z,3.92
2023-02-25T08:19:34.518Z,3.99
2023-02-25T08:24:36.942Z,4.07
2023-02-25T08:29:38.161Z,4.10
2023-02-25T08:34:39.378Z,3.89
2023-02-25T08:39:40.594Z,3.70
2023-02-25T08:44:41.808Z,3.61
2023-02-25T08:49:42.963Z,3.55
2023-02-25T08:54:44.122Z,3.57
2023-02-25T08:59:45.338Z,3.62
2023-02-25T09:04:46.587Z,3.67
2023-02-25T09:09:47.772Z,3.81
2023-02-25T09:14:50.231Z,3.83
2023-02-25T09:19:51.584Z,3.98
2023-02-25T09:24:52.746Z,3.94
2023-02-25T09:29:53.992Z,3.82
2023-02-25T09:34:55.285Z,3.87
2023-02-25T09:39:57.577Z,3.93
2023-02-25T09:44:58.792Z,4.10
2023-02-25T09:49:59.962Z,4.27
2023-02-25T09:55:03.539Z,4.51
2023-02-25T10:00:12.694Z,4.89
2023-02-25T10:05:14.855Z,4.84
2023-02-25T10:10:16.084Z,5.10
2023-02-25T10:15:18.799Z,5.00
2023-02-25T10:20:20.070Z,4.99
2023-02-25T10:25:21.284Z,5.54
2023-02-25T10:30:22.512Z,5.16
2023-02-25T10:35:23.711Z,4.95
2023-02-25T10:40:24.902Z,4.95
2023-02-25T10:45:26.162Z,4.86
2023-02-25T10:50:42.925Z,3.89
2023-02-25T10:55:51.525Z,3.31
2023-02-25T11:00:53.834Z,3.48
2023-02-25T11:05:55.063Z,3.83
2023-02-25T11:10:56.209Z,3.80
2023-02-25T11:15:57.403Z,3.97
2023-02-25T11:20:58.664Z,4.31
2023-02-25T11:25:59.834Z,5.26
2023-02-25T11:31:01.045Z,5.92
2023-02-25T11:36:02.306Z,5.38
2023-02-25T11:41:03.530Z,6.58
2023-02-25T11:46:04.734Z,6.43
2023-02-25T11:51:06.304Z,5.73
2023-02-25T11:56:07.520Z,5.33
2023-02-25T12:01:09.762Z,5.02
2023-02-25T12:06:11.681Z,5.55
2023-02-25T12:11:12.904Z,5.89
2023-02-25T12:16:14.085Z,5.57
2023-02-25T12:21:15.344Z,5.20
2023-02-25T12:26:16.551Z,4.84
2023-02-25T12:31:17.762Z,4.64
2023-02-25T12:36:18.909Z,5.21
2023-02-25T12:41:20.123Z,5.60
2023-02-25T12:46:22.144Z,5.84
2023-02-25T12:51:23.647Z,6.69
2023-02-25T12:56:25.059Z,5.85
2023-02-25T13:01:28.457Z,4.31
2023-02-25T13:06:29.677Z,3.60
2023-02-25T13:11:31.323Z,3.94
2023-02-25T13:16:33.564Z,4.30
2023-02-25T13:21:34.813Z,4.48
2023-02-25T13:26:35.993Z,4.61
2023-02-25T13:31:37.240Z,5.26
2023-02-25T13:36:38.546Z,5.74
2023-02-25T13:41:39.847Z,5.80
2023-02-25T13:46:40.991Z,5.96
2023-02-25T13:51:42.265Z,5.71
2023-02-25T13:56:43.734Z,5.20
2023-02-25T14:01:45.007Z,4.83
2023-02-25T14:06:47.278Z,5.22
2023-02-25T14:11:48.608Z,5.63
2023-02-25T14:16:51.487Z,5.75
2023-02-25T14:21:53.533Z,6.05
2023-02-25T14:26:54.746Z,6.10
2023-02-25T14:31:56.001Z,5.63
2023-02-25T14:36:57.257Z,5.33
2023-02-25T14:41:58.460Z,5.32
2023-02-25T14:46:59.621Z,5.40
2023-02-25T14:52:00.785Z,5.50
2023-02-25T14:57:02.013Z,5.44
2023-02-25T15:02:03.229Z,5.34
2023-02-25T15:07:04.409Z,5.22
2023-02-25T15:12:05.905Z,5.27
2023-02-25T15:17:07.120Z,5.32
2023-02-25T15:22:08.344Z,5.40
2023-02-25T15:27:09.537Z,5.39
2023-02-25T15:32:10.943Z,5.25
2023-02-25T15:37:12.182Z,5.17
2023-02-25T15:42:13.411Z,5.14
2023-02-25T15:47:14.610Z,5.27
2023-02-25T15:52:15.753Z,5.32
2023-02-25T15:57:16.904Z,5.09
2023-02-25T16:02:18.164Z,4.88
2023-02-25T16:07:19.430Z,4.76
2023-02-25T16:12:20.694Z,4.66
2023-02-25T16:17:21.863Z,4.57
2023-02-25T16:22:23.083Z,4.53
2023-02-25T16:27:24.258Z,4.44
2023-02-25T16:32:25.521Z,4.34
2023-02-25T16:37:26.740Z,4.27
2023-02-25T16:42:27.996Z,4.18
2023-02-25T16:47:29.214Z,4.06
2023-02-25T16:52:30.481Z,3.99
2023-02-25T16:57:33.770Z,3.90
2023-02-25T17:02:34.961Z,3.80
2023-02-25T17:07:36.145Z,3.20
2023-02-25T17:12:37.330Z,3.53
2023-02-25T17:17:38.654Z,3.41
2023-02-25T17:22:40.055Z,3.33
2023-02-25T17:27:41.459Z,3.24
2023-02-25T17:32:45.029Z,3.25
2023-02-25T17:37:46.264Z,3.18
2023-02-25T17:42:47.522Z,3.07
2023-02-25T17:47:48.694Z,2.96
2023-02-25T17:52:49.940Z,2.78
2023-02-25T17:57:51.125Z,2.66
2023-02-25T18:02:52.369Z,2.56
2023-02-25T18:07:54.369Z,2.48
2023-02-25T18:12:55.788Z,2.37
2023-02-25T18:17:56.985Z,2.28
2023-02-25T18:22:59.982Z,2.18
2023-02-25T18:28:01.137Z,2.23
2023-02-25T18:33:02.312Z,2.24
2023-02-25T18:38:03.650Z,2.22
2023-02-25T18:43:04.794Z,2.16
2023-02-25T18:48:05.994Z,2.08
2023-02-25T18:53:07.247Z,2.05
2023-02-25T18:58:08.452Z,2.04
2023-02-25T19:03:11.461Z,2.02
2023-02-25T19:08:13.081Z,2.09
2023-02-25T19:13:14.266Z,2.07
2023-02-25T19:18:15.548Z,2.00
2023-02-25T19:23:16.879Z,1.91
2023-02-25T19:28:18.103Z,1.84
2023-02-25T19:33:19.392Z,1.81
2023-02-25T19:38:20.545Z,1.75
2023-02-25T19:43:21.786Z,1.72
2023-02-25T19:48:23.043Z,1.70
2023-02-25T19:53:24.273Z,1.54
2023-02-25T19:58:25.554Z,1.51
2023-02-25T20:03:26.811Z,1.47
2023-02-25T20:08:28.035Z,1.37
2023-02-25T20:13:29.262Z,1.36
2023-02-25T20:18:30.421Z,1.27
2023-02-25T20:23:31.607Z,1.19
2023-02-25T20:28:32.839Z,1.10
2023-02-25T20:33:34.037Z,1.02
2023-02-25T20:38:35.215Z,0.88
2023-02-25T20:43:36.419Z,0.77
2023-02-25T20:48:37.563Z,0.70
2023-02-25T20:53:38.812Z,0.63
2023-02-25T20:58:40.783Z,0.49
2023-02-25T21:03:41.985Z,0.28
2023-02-25T21:08:43.160Z,0.12
2023-02-25T21:13:46.851Z,-0.02
2023-02-25T21:18:47.984Z,-0.09
2023-02-25T21:23:52.499Z,-0.19
2023-02-25T21:28:53.728Z,-0.15
2023-02-25T21:33:54.898Z,-0.17
2023-02-25T21:38:56.127Z,-0.32
2023-02-25T21:43:57.864Z,-0.44
2023-02-25T21:48:59.424Z,-0.54
2023-02-25T21:54:00.685Z,-0.58
2023-02-25T21:59:01.832Z,-0.57
2023-02-25T22:04:03.034Z,-0.66
2023-02-25T22:09:04.416Z,-0.69
2023-02-25T22:14:05.651Z,-0.76
2023-02-25T22:19:06.989Z,-0.78
2023-02-25T22:24:08.248Z,-0.74
2023-02-25T22:29:09.513Z,-0.82
2023-02-25T22:34:10.769Z,-0.78
2023-02-25T22:39:11.952Z,-0.75
2023-02-25T22:44:13.144Z,-0.76
2023-02-25T22:49:14.290Z,-0.74
2023-02-25T22:54:15.494Z,-0.74
2023-02-25T22:59:17.425Z,-0.68
2023-02-25T23:04:18.565Z,-0.71
2023-02-25T23:09:19.690Z,-0.74
2023-02-25T23:14:20.932Z,-0.76
2023-02-25T23:19:22.107Z,-0.82
2023-02-25T23:24:23.324Z,-0.87
2023-02-25T23:29:24.513Z,-0.87
2023-02-25T23:34:25.847Z,-0.87
2023-02-25T23:39:27.766Z,-0.93
2023-02-25T23:44:29.006Z,-0.96
2023-02-25T23:49:30.193Z,-0.94
2023-02-25T23:54:31.401Z,-0.84
2023-02-25T23:59:32.592Z,-0.73
